Time;durP1;ratioP1;P1;durP2;ratioP2;P2;SDS_P1;SDS_P2;PMS_P1;PMS_P2;Temp;Humidity;BMP_temperature;BMP_pressure;BME280_temperature;BME280_humidity;BME280_pressure;Samples;Min_cycle;Max_cycle;Signal;HPM_P1;HPM_P2
2022/06/23 00:03:37;;;;;;;6.75;5.18;;;;;;;;;;10476967;28;20111;-68
2022/06/23 00:08:44;;;;;;;7.60;5.38;;;;;;;;;;10491443;28;20051;-69
2022/06/23 00:13:47;;;;;;;6.80;5.20;;;;;;;;;;10491449;28;20041;-68
2022/06/23 00:18:49;;;;;;;8.77;5.20;;;;;;;;;;10490630;28;20045;-67
2022/06/23 00:23:55;;;;;;;5.05;4.63;;;;;;;;;;10478468;28;20244;-68
2022/06/23 00:29:02;;;;;;;6.25;4.43;;;;;;;;;;10490441;28;20047;-67
2022/06/23 00:34:17;;;;;;;6.75;4.97;;;;;;;;;;10489263;28;20043;-67
2022/06/23 00:39:22;;;;;;;5.23;4.73;;;;;;;;;;10490238;28;20387;-68
2022/06/23 00:44:34;;;;;;;4.55;4.10;;;;;;;;;;10476292;28;20120;-68
2022/06/23 00:49:46;;;;;;;5.80;4.05;;;;;;;;;;10485149;28;20360;-69
2022/06/23 00:54:53;;;;;;;4.50;4.10;;;;;;;;;;10489293;28;20049;-68
2022/06/23 01:00:01;;;;;;;4.70;4.30;;;;;;;;;;10489666;28;20037;-68
2022/06/23 01:05:08;;;;;;;4.95;4.45;;;;;;;;;;10488007;28;20052;-68
2022/06/23 01:10:18;;;;;;;5.90;5.30;;;;;;;;;;10489060;28;20103;-68
2022/06/23 01:15:29;;;;;;;6.03;5.00;;;;;;;;;;10488938;28;20044;-68
2022/06/23 01:20:40;;;;;;;6.22;5.28;;;;;;;;;;10486346;28;20140;-68
2022/06/23 01:26:05;;;;;;;7.15;5.75;;;;;;;;;;10488944;28;20048;-68
2022/06/23 01:31:15;;;;;;;10.85;6.07;;;;;;;;;;10490274;28;20041;-68
2022/06/23 01:36:22;;;;;;;5.82;5.13;;;;;;;;;;10497876;28;20059;-68
2022/06/23 01:41:30;;;;;;;7.50;5.65;;;;;;;;;;10483048;28;20048;-68
2022/06/23 01:46:37;;;;;;;8.30;6.57;;;;;;;;;;10496931;28;20048;-68
2022/06/23 01:51:46;;;;;;;9.68;6.95;;;;;;;;;;10486594;28;20276;-68
2022/06/23 01:56:56;;;;;;;12.82;7.95;;;;;;;;;;10473522;28;20053;-68
2022/06/23 02:02:14;;;;;;;7.78;7.03;;;;;;;;;;10455372;28;20041;-68
2022/06/23 02:07:22;;;;;;;9.40;7.05;;;;;;;;;;10477044;28;20053;-68
2022/06/23 02:12:30;;;;;;;7.13;6.15;;;;;;;;;;10483101;28;20056;-68
2022/06/23 02:17:45;;;;;;;9.18;7.05;;;;;;;;;;10481153;28;20052;-68
2022/06/23 02:22:48;;;;;;;9.60;6.57;;;;;;;;;;10484008;28;20048;-68
2022/06/23 02:27:54;;;;;;;7.15;5.72;;;;;;;;;;10492876;28;20045;-68
2022/06/23 02:33:04;;;;;;;7.40;6.13;;;;;;;;;;10495084;28;20041;-68
2022/06/23 02:38:12;;;;;;;7.05;5.78;;;;;;;;;;10494875;28;20381;-68
2022/06/23 02:43:21;;;;;;;6.15;5.53;;;;;;;;;;10494677;28;20056;-68
2022/06/23 02:48:49;;;;;;;7.13;5.55;;;;;;;;;;10493219;28;20107;-68
2022/06/23 02:54:19;;;;;;;11.10;5.25;;;;;;;;;;10454299;28;20045;-68
2022/06/23 02:59:32;;;;;;;6.05;5.45;;;;;;;;;;10470352;28;20057;-68
2022/06/23 03:04:43;;;;;;;6.63;5.68;;;;;;;;;;10464275;28;20075;-68
2022/06/23 03:09:49;;;;;;;11.57;9.88;;;;;;;;;;10494204;28;20060;-68
2022/06/23 03:14:56;;;;;;;6.03;5.40;;;;;;;;;;10493484;28;20041;-68
2022/06/23 03:20:03;;;;;;;8.05;6.30;;;;;;;;;;10491818;28;20344;-68
2022/06/23 03:25:16;;;;;;;6.65;5.95;;;;;;;;;;10479891;28;20061;-68
2022/06/23 03:30:24;;;;;;;5.20;4.43;;;;;;;;;;10487437;28;20037;-68
2022/06/23 03:35:37;;;;;;;4.18;3.75;;;;;;;;;;10478996;28;20060;-68
2022/06/23 03:46:14;;;;;;;5.45;3.88;;;;;;;;;;10451714;28;20248;-71
2022/06/23 03:51:22;;;;;;;4.13;3.45;;;;;;;;;;10482339;28;20069;-69
2022/06/23 03:56:28;;;;;;;6.15;3.75;;;;;;;;;;10478628;28;20053;-68
2022/06/23 04:01:34;;;;;;;3.88;2.72;;;;;;;;;;10474880;28;20049;-67
2022/06/23 04:06:39;;;;;;;1.30;1.20;;;;;;;;;;10476643;28;20061;-69
2022/06/23 04:11:53;;;;;;;0.17;0.17;;;;;;;;;;10491080;28;20040;-69
2022/06/23 04:17:06;;;;;;;0.00;0.00;;;;;;;;;;10490169;28;20045;-69
2022/06/23 04:22:15;;;;;;;0.00;0.00;;;;;;;;;;10477517;28;20093;-69
2022/06/23 04:27:22;;;;;;;0.00;0.00;;;;;;;;;;10490487;28;20052;-69
2022/06/23 04:32:28;;;;;;;0.68;0.68;;;;;;;;;;10476042;28;20049;-69
2022/06/23 04:37:42;;;;;;;0.60;0.60;;;;;;;;;;10476599;28;20060;-69
2022/06/23 04:42:48;;;;;;;0.00;0.00;;;;;;;;;;10476443;28;20052;-68
2022/06/23 04:47:53;;;;;;;0.00;0.00;;;;;;;;;;10476617;28;20233;-68
2022/06/23 04:53:00;;;;;;;0.00;0.00;;;;;;;;;;10475399;28;20077;-68
2022/06/23 04:58:05;;;;;;;0.00;0.00;;;;;;;;;;10476230;28;20087;-69
2022/06/23 05:03:16;;;;;;;0.00;0.00;;;;;;;;;;10474830;28;20048;-69
2022/06/23 05:08:25;;;;;;;0.00;0.00;;;;;;;;;;10474617;28;20052;-69
2022/06/23 05:13:31;;;;;;;0.00;0.00;;;;;;;;;;10471396;28;20056;-68
2022/06/23 05:18:39;;;;;;;0.00;0.00;;;;;;;;;;10475425;28;20057;-68
2022/06/23 05:23:45;;;;;;;0.15;0.15;;;;;;;;;;10477029;28;20087;-69
2022/06/23 05:28:52;;;;;;;0.10;0.10;;;;;;;;;;10474759;28;20052;-69
2022/06/23 05:33:56;;;;;;;0.20;0.20;;;;;;;;;;10488924;28;20044;-69
2022/06/23 05:39:01;;;;;;;;;;;;;;;;;;10488797;28;20037;-70
2022/06/23 05:44:06;;;;;;;0.50;0.50;;;;;;;;;;10488466;28;19925;-69
2022/06/23 05:49:16;;;;;;;0.70;0.70;;;;;;;;;;10485146;28;20061;-70
2022/06/23 05:54:24;;;;;;;0.80;0.80;;;;;;;;;;10487477;28;20052;-70
2022/06/23 05:59:32;;;;;;;1.20;1.20;;;;;;;;;;10485911;28;20237;-69
2022/06/23 06:04:43;;;;;;;1.50;1.50;;;;;;;;;;10486607;28;20052;-69
2022/06/23 06:09:48;;;;;;;2.40;2.40;;;;;;;;;;10488476;28;20045;-70
2022/06/23 06:14:57;;;;;;;2.90;2.80;;;;;;;;;;10474112;28;20049;-69
2022/06/23 06:20:04;;;;;;;3.80;3.70;;;;;;;;;;10479189;28;20163;-69
2022/06/23 06:25:18;;;;;;;4.80;4.70;;;;;;;;;;10495595;28;20041;-69
2022/06/23 06:30:25;;;;;;;6.20;6.00;;;;;;;;;;10481340;28;20053;-70
2022/06/23 06:35:35;;;;;;;7.72;7.43;;;;;;;;;;10480872;28;20053;-70
2022/06/23 06:40:41;;;;;;;9.70;9.30;;;;;;;;;;10494917;28;20068;-69
2022/06/23 06:45:44;;;;;;;11.85;11.35;;;;;;;;;;10494962;28;20059;-69
2022/06/23 06:50:49;;;;;;;15.07;14.38;;;;;;;;;;10486234;28;20056;-69
2022/06/23 06:55:56;;;;;;;17.73;16.85;;;;;;;;;;10494421;28;20048;-69
2022/06/23 07:01:01;;;;;;;19.80;18.80;;;;;;;;;;10488266;28;20055;-69
2022/06/23 07:06:10;;;;;;;23.83;22.63;;;;;;;;;;10466906;28;20355;-69
2022/06/23 07:11:18;;;;;;;26.98;25.58;;;;;;;;;;10494332;28;20272;-69
2022/06/23 07:16:26;;;;;;;31.17;29.48;;;;;;;;;;10493495;28;20041;-68
2022/06/23 07:21:34;;;;;;;34.35;32.45;;;;;;;;;;10487946;28;20056;-69
2022/06/23 07:26:42;;;;;;;38.83;36.63;;;;;;;;;;10494020;28;20044;-69
2022/06/23 07:31:55;;;;;;;42.92;40.42;;;;;;;;;;10491392;28;20423;-68
2022/06/23 07:36:59;;;;;;;48.13;45.33;;;;;;;;;;10480513;28;20337;-68
2022/06/23 07:42:11;;;;;;;52.75;49.60;;;;;;;;;;10489895;28;20036;-69
2022/06/23 07:47:13;;;;;;;56.17;52.78;;;;;;;;;;10438181;28;20095;-68
2022/06/23 07:52:18;;;;;;;58.50;54.90;;;;;;;;;;10454535;28;20146;-69
2022/06/23 07:57:29;;;;;;;62.70;58.80;;;;;;;;;;10481141;28;20056;-69
2022/06/23 08:02:36;;;;;;;65.20;61.10;;;;;;;;;;10509371;28;20036;-69
2022/06/23 08:07:39;;;;;;;69.57;65.07;;;;;;;;;;10491954;28;20060;-68
2022/06/23 08:12:56;;;;;;;71.88;67.22;;;;;;;;;;10477594;28;20052;-69
2022/06/23 08:18:03;;;;;;;76.55;71.55;;;;;;;;;;10477082;28;20115;-69
2022/06/23 08:23:08;;;;;;;82.28;76.78;;;;;;;;;;10480929;28;20049;-69
2022/06/23 08:28:12;;;;;;;90.38;84.15;;;;;;;;;;10491971;28;20041;-71
2022/06/23 08:33:15;;;;;;;94.35;87.75;;;;;;;;;;10491617;28;20041;-70
2022/06/23 08:38:21;;;;;;;97.55;90.57;;;;;;;;;;10524530;28;20112;-68
2022/06/23 08:43:35;;;;;;;86.65;80.20;;;;;;;;;;10506918;28;20055;-68
2022/06/23 08:48:42;;;;;;;92.00;85.13;;;;;;;;;;10489398;28;20075;-70
2022/06/23 08:53:55;;;;;;;79.50;74.10;;;;;;;;;;10488873;28;20412;-70
2022/06/23 08:59:03;;;;;;;;;;;;;;;;;;10452784;28;20052;-70
2022/06/23 09:04:10;;;;;;;77.20;71.10;;;;;;;;;;10442207;28;20057;-69
2022/06/23 09:09:20;;;;;;;;;;;;;;;;;;10497456;28;20351;-70
2022/06/23 09:14:31;;;;;;;;;;;;;;;;;;10513315;28;20426;-69
2022/06/23 09:19:47;;;;;;;81.57;75.97;;;;;;;;;;10475448;28;20454;-69
2022/06/23 09:25:06;;;;;;;47.73;44.93;;;;;;;;;;10487662;28;20419;-69
2022/06/23 09:30:15;;;;;;;59.67;55.97;;;;;;;;;;10515320;28;20355;-69
2022/06/23 09:35:48;;;;;;;60.58;56.83;;;;;;;;;;10499572;28;20056;-70
2022/06/23 09:41:05;;;;;;;34.42;32.53;;;;;;;;;;10349140;28;20069;-68
2022/06/23 09:46:33;;;;;;;34.38;32.47;;;;;;;;;;10380466;28;20145;-69
2022/06/23 09:51:42;;;;;;;;;;;;;;;;;;10353042;28;20061;-70
2022/06/23 09:57:07;;;;;;;0.30;0.30;;;;;;;;;;10363578;28;19926;-68
2022/06/23 10:02:23;;;;;;;0.00;0.00;;;;;;;;;;10354009;28;20058;-69
2022/06/23 10:07:43;;;;;;;0.00;0.00;;;;;;;;;;10369564;28;20046;-69
2022/06/23 10:13:05;;;;;;;7.80;7.50;;;;;;;;;;10369682;28;20038;-68
2022/06/23 10:18:34;;;;;;;0.00;0.00;;;;;;;;;;10468045;28;20048;-68
2022/06/23 10:24:05;;;;;;;0.35;0.35;;;;;;;;;;10471811;28;20056;-68
2022/06/23 10:29:25;;;;;;;1.60;1.60;;;;;;;;;;10440765;28;20053;-68
2022/06/23 10:34:40;;;;;;;0.00;0.00;;;;;;;;;;10451845;28;20074;-68
2022/06/23 10:40:03;;;;;;;0.00;0.00;;;;;;;;;;10481244;28;20052;-69
2022/06/23 10:45:09;;;;;;;;;;;;;;;;;;10495906;28;20151;-70
2022/06/23 10:50:37;;;;;;;9.32;8.93;;;;;;;;;;10488899;28;20200;-69
2022/06/23 10:56:02;;;;;;;4.28;4.10;;;;;;;;;;10487248;28;20072;-68
2022/06/23 11:01:21;;;;;;;0.00;0.00;;;;;;;;;;10494830;28;20352;-68
2022/06/23 11:06:48;;;;;;;1.00;1.00;;;;;;;;;;10486424;28;20352;-68
2022/06/23 11:12:03;;;;;;;7.70;7.40;;;;;;;;;;10475643;28;20094;-69
2022/06/23 11:17:14;;;;;;;8.30;8.00;;;;;;;;;;10492859;28;20275;-70
2022/06/23 11:22:33;;;;;;;2.17;2.17;;;;;;;;;;10476225;28;20057;-71
2022/06/23 11:27:44;;;;;;;6.65;6.45;;;;;;;;;;10494077;28;20075;-68
2022/06/23 11:33:06;;;;;;;7.87;7.57;;;;;;;;;;10479874;28;20049;-68
2022/06/23 11:38:34;;;;;;;5.80;5.60;;;;;;;;;;10493528;28;20041;-70
2022/06/23 11:44:05;;;;;;;3.70;3.60;;;;;;;;;;10493211;28;20041;-68
2022/06/23 11:49:24;;;;;;;2.90;2.80;;;;;;;;;;10476560;28;20072;-69
2022/06/23 11:54:48;;;;;;;4.82;4.72;;;;;;;;;;10492774;28;20040;-68
2022/06/23 12:00:02;;;;;;;2.30;2.30;;;;;;;;;;10478790;28;20045;-68
2022/06/23 12:05:18;;;;;;;3.05;2.95;;;;;;;;;;10476757;28;20063;-70
2022/06/23 12:10:25;;;;;;;5.50;5.30;;;;;;;;;;10492128;28;20044;-69
2022/06/23 12:15:32;;;;;;;4.88;4.78;;;;;;;;;;10490169;28;20036;-69
2022/06/23 12:20:40;;;;;;;3.75;3.65;;;;;;;;;;10477789;28;20264;-68
2022/06/23 12:25:52;;;;;;;6.15;5.95;;;;;;;;;;10491056;28;20139;-69
2022/06/23 12:31:00;;;;;;;8.10;7.80;;;;;;;;;;10485994;28;20060;-69
2022/06/23 12:36:11;;;;;;;4.03;3.92;;;;;;;;;;10490981;28;20037;-68
2022/06/23 12:41:21;;;;;;;3.10;3.00;;;;;;;;;;10489808;28;20348;-69
2022/06/23 12:46:37;;;;;;;0.10;0.10;;;;;;;;;;10491423;28;20049;-69
2022/06/23 12:51:49;;;;;;;0.00;0.00;;;;;;;;;;10476126;28;20057;-69
2022/06/23 12:57:14;;;;;;;0.00;0.00;;;;;;;;;;10476898;28;20271;-69
2022/06/23 13:02:27;;;;;;;6.72;6.53;;;;;;;;;;10476693;28;20068;-68
2022/06/23 13:07:38;;;;;;;0.00;0.00;;;;;;;;;;10476206;28;20068;-68
2022/06/23 13:12:46;;;;;;;0.00;0.00;;;;;;;;;;10475787;28;20071;-69
2022/06/23 13:17:49;;;;;;;0.00;0.00;;;;;;;;;;10489346;28;20041;-69
2022/06/23 13:22:56;;;;;;;0.00;0.00;;;;;;;;;;10478615;28;20044;-72
2022/06/23 13:27:59;;;;;;;0.00;0.00;;;;;;;;;;10481091;28;20080;-71
2022/06/23 13:33:04;;;;;;;6.68;6.40;;;;;;;;;;10484850;28;20048;-69
2022/06/23 13:38:15;;;;;;;0.00;0.00;;;;;;;;;;10488554;28;20052;-72
2022/06/23 13:43:26;;;;;;;0.00;0.00;;;;;;;;;;10484869;28;20073;-70
2022/06/23 13:48:31;;;;;;;0.00;0.00;;;;;;;;;;10470918;28;20331;-72
2022/06/23 13:53:37;;;;;;;0.00;0.00;;;;;;;;;;10481673;28;20040;-69
2022/06/23 13:58:52;;;;;;;0.00;0.00;;;;;;;;;;10487300;28;20041;-69
2022/06/23 14:03:58;;;;;;;0.00;0.00;;;;;;;;;;10484965;28;20045;-69
2022/06/23 14:09:04;;;;;;;0.00;0.00;;;;;;;;;;10481734;28;20064;-73
2022/06/23 14:14:12;;;;;;;0.00;0.00;;;;;;;;;;10485079;28;20083;-73
2022/06/23 14:19:16;;;;;;;0.20;0.05;;;;;;;;;;10488252;28;20333;-72
2022/06/23 14:24:21;;;;;;;0.00;0.00;;;;;;;;;;10458257;28;20359;-70
2022/06/23 14:29:32;;;;;;;0.00;0.00;;;;;;;;;;10486728;28;20036;-70
2022/06/23 14:45:35;;;;;;;0.00;0.00;;;;;;;;;;11192044;23;20069;-70
2022/06/23 14:56:06;;;;;;;0.00;0.00;;;;;;;;;;11314343;23;20382;-71
2022/06/23 15:01:15;;;;;;;0.00;0.00;;;;;;;;;;10411510;28;20050;-71
2022/06/23 15:06:20;;;;;;;0.00;0.00;;;;;;;;;;10397681;28;20038;-72
2022/06/23 15:11:24;;;;;;;0.00;0.00;;;;;;;;;;10438973;28;20042;-71
2022/06/23 15:16:31;;;;;;;0.00;0.00;;;;;;;;;;10411650;28;20096;-71
2022/06/23 15:27:28;;;;;;;0.00;0.00;;;;;;;;;;10634599;27;20553;-70
2022/06/23 15:32:33;;;;;;;0.00;0.00;;;;;;;;;;10136904;27;63536;-70
2022/06/23 15:37:40;;;;;;;0.00;0.00;;;;;;;;;;10393689;28;20056;-71
2022/06/23 15:42:49;;;;;;;0.00;0.00;;;;;;;;;;10531152;28;20047;-68
2022/06/23 15:47:54;;;;;;;0.00;0.00;;;;;;;;;;10527549;28;20044;-70
2022/06/23 15:52:59;;;;;;;0.00;0.00;;;;;;;;;;10481334;28;20052;-71
2022/06/23 15:58:05;;;;;;;0.00;0.00;;;;;;;;;;10483203;28;20036;-71
2022/06/23 16:03:11;;;;;;;0.00;0.00;;;;;;;;;;10517655;28;20059;-70
2022/06/23 16:13:51;;;;;;;0.00;0.00;;;;;;;;;;10652107;27;1368962;-72
2022/06/23 16:18:54;;;;;;;0.00;0.00;;;;;;;;;;10690731;27;20318;-72
2022/06/23 16:23:59;;;;;;;0.00;0.00;;;;;;;;;;10684634;27;20039;-73
2022/06/23 16:29:05;;;;;;;0.00;0.00;;;;;;;;;;10695247;27;20051;-70
2022/06/23 16:34:11;;;;;;;0.00;0.00;;;;;;;;;;10660116;27;20047;-72
2022/06/23 16:39:16;;;;;;;0.00;0.00;;;;;;;;;;10643963;27;20055;-72
2022/06/23 16:44:25;;;;;;;0.00;0.00;;;;;;;;;;10676740;27;20047;-70
2022/06/23 16:49:30;;;;;;;0.00;0.00;;;;;;;;;;10682456;27;20050;-70
2022/06/23 16:54:37;;;;;;;0.00;0.00;;;;;;;;;;10659805;27;20345;-69
2022/06/23 16:59:43;;;;;;;0.00;0.00;;;;;;;;;;10651052;27;20082;-70
2022/06/23 17:04:49;;;;;;;0.30;0.00;;;;;;;;;;10623177;27;20080;-72
2022/06/23 17:09:53;;;;;;;0.00;0.00;;;;;;;;;;10646795;27;20369;-72
2022/06/23 17:15:05;;;;;;;0.10;0.10;;;;;;;;;;10650674;27;20044;-72
2022/06/23 17:20:08;;;;;;;0.03;0.03;;;;;;;;;;10649859;27;20051;-72
2022/06/23 17:25:16;;;;;;;0.00;0.00;;;;;;;;;;10617615;27;20039;-70
2022/06/23 17:30:22;;;;;;;0.00;0.00;;;;;;;;;;10620703;27;20268;-72
2022/06/23 17:35:29;;;;;;;0.00;0.00;;;;;;;;;;10621234;28;20039;-70
2022/06/23 17:46:00;;;;;;;0.00;0.00;;;;;;;;;;10616376;28;20047;-73
2022/06/23 17:51:04;;;;;;;0.43;0.20;;;;;;;;;;10617704;28;20338;-72
2022/06/23 17:56:15;;;;;;;0.10;0.10;;;;;;;;;;10599220;28;20085;-72
2022/06/23 18:01:19;;;;;;;0.20;0.13;;;;;;;;;;10619470;28;20051;-71
2022/06/23 18:06:22;;;;;;;0.10;0.10;;;;;;;;;;10619520;28;20047;-70
2022/06/23 18:11:27;;;;;;;0.20;0.20;;;;;;;;;;10607038;28;20242;-71
2022/06/23 18:16:33;;;;;;;0.10;0.10;;;;;;;;;;10618956;28;20318;-68
2022/06/23 18:26:22;;;;;;;0.50;0.50;;;;;;;;;;10552865;27;20409;-70
2022/06/23 18:31:28;;;;;;;0.30;0.30;;;;;;;;;;10558247;28;20339;-69
2022/06/23 18:36:34;;;;;;;0.52;0.52;;;;;;;;;;10534056;28;20071;-70
2022/06/23 18:41:43;;;;;;;0.85;0.68;;;;;;;;;;10539723;28;20060;-69
2022/06/23 18:46:46;;;;;;;0.50;0.50;;;;;;;;;;10538635;28;20047;-69
2022/06/23 18:51:49;;;;;;;0.45;0.45;;;;;;;;;;10545517;28;20051;-68
2022/06/23 18:57:00;;;;;;;1.50;0.93;;;;;;;;;;10552806;28;20293;-68
2022/06/23 19:02:09;;;;;;;1.98;1.25;;;;;;;;;;10549390;28;20060;-68
2022/06/23 19:07:14;;;;;;;1.95;1.20;;;;;;;;;;10527386;28;20332;-68
2022/06/23 19:12:26;;;;;;;0.98;0.80;;;;;;;;;;10528734;28;20059;-69
2022/06/23 19:17:39;;;;;;;2.42;1.23;;;;;;;;;;10520282;28;20331;-68
2022/06/23 19:22:48;;;;;;;1.25;1.15;;;;;;;;;;10489952;28;20075;-68
2022/06/23 19:28:00;;;;;;;2.30;0.90;;;;;;;;;;10525811;28;20040;-69
2022/06/23 19:33:12;;;;;;;1.90;1.05;;;;;;;;;;10537328;28;20060;-68
2022/06/23 21:12:21;;;;;;;4.32;2.20;;;;;;;;;;10307036;27;81480;-68
2022/06/23 21:17:40;;;;;;;4.10;2.95;;;;;;;;;;10436905;28;20052;-68
2022/06/23 21:22:57;;;;;;;3.25;2.95;;;;;;;;;;10469803;28;20045;-68
2022/06/23 21:28:14;;;;;;;2.50;2.30;;;;;;;;;;10511906;28;20063;-68
2022/06/23 21:33:18;;;;;;;4.40;2.63;;;;;;;;;;10503909;28;20049;-68
2022/06/23 21:38:22;;;;;;;;;;;;;;;;;;10485966;28;20041;-68
2022/06/23 21:43:35;;;;;;;4.07;2.70;;;;;;;;;;10491286;28;19917;-68
2022/06/23 21:48:50;;;;;;;4.65;3.65;;;;;;;;;;10469837;28;20102;-68
2022/06/23 21:53:58;;;;;;;5.57;3.67;;;;;;;;;;10468796;28;20052;-68
2022/06/23 21:59:17;;;;;;;3.33;3.03;;;;;;;;;;10486751;28;20045;-68
2022/06/23 22:04:27;;;;;;;2.92;2.70;;;;;;;;;;10509994;28;20044;-69
2022/06/23 22:09:34;;;;;;;4.15;2.88;;;;;;;;;;10505559;28;20068;-69
2022/06/23 22:14:44;;;;;;;4.63;3.58;;;;;;;;;;10468834;28;20099;-66
2022/06/23 22:19:54;;;;;;;2.92;2.72;;;;;;;;;;10483830;28;20060;-68
2022/06/23 22:30:39;;;;;;;4.22;3.35;;;;;;;;;;10439702;28;20045;-67
2022/06/23 22:35:41;;;;;;;3.40;3.10;;;;;;;;;;10440101;28;20049;-67
2022/06/23 22:41:05;;;;;;;3.47;3.17;;;;;;;;;;10439810;28;20052;-67
2022/06/23 22:46:11;;;;;;;2.92;2.72;;;;;;;;;;10439449;28;20041;-67
2022/06/23 22:51:14;;;;;;;4.95;3.60;;;;;;;;;;10439614;28;20053;-67
2022/06/23 22:56:53;;;;;;;3.38;3.08;;;;;;;;;;10439199;28;20056;-68
2022/06/23 23:02:00;;;;;;;3.85;3.42;;;;;;;;;;10439003;28;20232;-69
2022/06/23 23:07:03;;;;;;;3.85;3.47;;;;;;;;;;10438251;28;20041;-69
2022/06/23 23:12:24;;;;;;;3.25;2.97;;;;;;;;;;10438233;28;20268;-68
2022/06/23 23:17:28;;;;;;;4.38;3.42;;;;;;;;;;10450728;28;20056;-69
2022/06/23 23:22:32;;;;;;;3.10;2.90;;;;;;;;;;10456493;28;20046;-68
2022/06/23 23:27:34;;;;;;;4.53;2.95;;;;;;;;;;10438003;28;20042;-69
2022/06/23 23:32:38;;;;;;;3.20;3.00;;;;;;;;;;10436654;28;20050;-69
2022/06/23 23:37:40;;;;;;;3.47;3.17;;;;;;;;;;10461032;28;20049;-69
2022/06/23 23:42:43;;;;;;;12.63;3.53;;;;;;;;;;10455016;28;20063;-68
2022/06/23 23:47:49;;;;;;;4.13;3.47;;;;;;;;;;10437692;28;20038;-68
2022/06/23 23:52:52;;;;;;;6.40;3.70;;;;;;;;;;10470368;28;20328;-68
2022/06/23 23:57:56;;;;;;;5.53;3.85;;;;;;;;;;10476382;28;20390;-68
